Etusivu
METAR-TAF:

METAR-TAF

Lentoasemat :

Orio al Serion lentoasema

Bergamo, Italia

Leveyspiiri: 45-40N, Pituuspiiri: 009-42E, korkeus merenpinnasta: 238 m

Tämänhetkinen sää

Tämä raportti tehtiin 41 minuuttia sitten, kello 09.20 UTC
Tuuli 1 kn eri suunnista
Lämpötila 10°C
Kosteus 66%
Ilmanpaine 1025 hPa
Näkyvyys: 6000 m
Hajonneita pilviä 4500 ft:n korkeudessa

METAR: LIME 170920Z VRB01KT 6000 BKN045 10/04 Q1025 NOSIG

Aika: 11:01 (10:01 UTC)

Sääennuste

Tämä raportti tehtiin 5 tuntia ja 1 minuuttia sitten, kello 05.00 UTC
Ennuste voimassa 17. päivästä klo 06 UTC - 18. päivään klo 06 UTC
Tuuli 5 kn eri suunnista
Näkyvyys: 5000 m
Hajanaisia pilviä 5000 ft:n korkeudessa
utua
Ajoittain
17. päivästä klo 12 UTC - 17. päivään klo 24 UTC
sadetta

TAF: LIME 170500Z 1706/1806 VRB05KT 5000 BR SCT050 TEMPO 1712/1724 RA

Säähavainnot ja -ennusteet yli 4000 lentoasemalta (METAR- ja TAF-raportit).

Käytössä olevat sääasemat on merkitty karttaan keltaisilla ja punaisilla pisteillä.

Aseta hiiri pisteen päälle nähdäksesi sääaseman nimen.

Klikkaa sitten nähdäksesi säähavainnot ja -ennusteet.

Kartan vaihtaminen: klikkaa mustalla rastilla varustettuja vihreitä pisteitä, niin voit zoomata sisään; viivalla varustettua vihreää pistettä, niin voit zoomata ulos tai vihreitä nuolia, niin pääset viereisille kartoille.


METAR-TAF: